Time;durP1;ratioP1;P1;durP2;ratioP2;P2;SDS_P1;SDS_P2;PMS_P1;PMS_P2;Temp;Humidity;BMP_temperature;BMP_pressure;BME280_temperature;BME280_humidity;BME280_pressure;Samples;Min_cycle;Max_cycle;Signal;HPM_P1;HPM_P2
2023/10/09 00:01:17;;;;;;;;;;;22.10;57.30;;;;;;1548052;75;1407;-62
2023/10/09 00:03:19;;;;;;;;;;;22.10;57.40;;;;;;1550048;75;1975;-68
2023/10/09 00:05:31;;;;;;;;;;;22.00;57.40;;;;;;1558691;75;1521;-66
2023/10/09 00:07:27;;;;;;;;;;;22.10;57.60;;;;;;1551215;75;1026;-68
2023/10/09 00:09:32;;;;;;;;;;;22.10;57.60;;;;;;1548146;75;1925;-66
2023/10/09 00:11:41;;;;;;;;;;;22.10;57.60;;;;;;1557552;75;901;-64
2023/10/09 00:13:38;;;;;;;;;;;22.10;57.80;;;;;;1541143;75;1500;-66
2023/10/09 00:15:41;;;;;;;;;;;22.10;57.70;;;;;;1560013;74;776;-63
2023/10/09 00:17:46;;;;;;;;;;;22.10;57.70;;;;;;1560439;75;702;-63
2023/10/09 00:19:51;;;;;;;;;;;22.10;57.80;;;;;;1556233;75;1741;-63
2023/10/09 00:21:56;;;;;;;;;;;22.10;57.60;;;;;;1558512;75;750;-64
2023/10/09 00:23:59;;;;;;;;;;;22.10;57.90;;;;;;1551499;75;1541;-64
2023/10/09 00:26:16;;;;;;;;;;;22.10;57.80;;;;;;1552345;75;1661;-64
2023/10/09 00:28:13;;;;;;;;;;;22.10;57.80;;;;;;1556860;75;1628;-66
2023/10/09 00:30:21;;;;;;;;;;;22.10;57.80;;;;;;1559115;75;1915;-64
2023/10/09 00:32:22;;;;;;;;;;;22.10;57.80;;;;;;1521012;77;1471;-64
2023/10/09 00:34:26;;;;;;;;;;;22.10;57.90;;;;;;1478914;78;1848;-68
2023/10/09 00:36:29;;;;;;;;;;;22.10;57.80;;;;;;1517889;76;1532;-65
2023/10/09 00:38:34;;;;;;;;;;;22.10;57.80;;;;;;1519205;76;709;-63
2023/10/09 00:40:36;;;;;;;;;;;22.10;57.80;;;;;;1506219;78;1695;-64
2023/10/09 00:42:38;;;;;;;;;;;22.10;57.80;;;;;;1495683;78;731;-65
2023/10/09 00:44:41;;;;;;;;;;;22.10;57.70;;;;;;1491571;78;659;-62
2023/10/09 00:46:45;;;;;;;;;;;22.10;57.80;;;;;;1498077;77;1556;-63
2023/10/09 00:48:50;;;;;;;;;;;22.10;57.80;;;;;;1496777;78;1914;-64
2023/10/09 00:50:55;;;;;;;;;;;22.20;57.80;;;;;;1498343;78;1411;-62
2023/10/09 00:53:04;;;;;;;;;;;22.10;57.70;;;;;;1496063;77;915;-65
2023/10/09 00:55:21;;;;;;;;;;;22.10;57.80;;;;;;1498737;78;802;-63
2023/10/09 00:57:24;;;;;;;;;;;22.10;57.60;;;;;;1493351;78;1655;-63
2023/10/09 00:59:24;;;;;;;;;;;22.10;57.70;;;;;;1496175;78;1619;-67
2023/10/09 01:01:34;;;;;;;;;;;22.20;57.80;;;;;;1493640;78;1610;-65
2023/10/09 01:03:33;;;;;;;;;;;22.10;57.80;;;;;;1519784;77;1404;-61
2023/10/09 01:05:36;;;;;;;;;;;22.10;57.70;;;;;;1520615;77;1674;-62
2023/10/09 01:07:40;;;;;;;;;;;22.10;57.70;;;;;;1517082;77;1493;-62
2023/10/09 01:09:45;;;;;;;;;;;22.10;57.80;;;;;;1514227;77;1913;-62
2023/10/09 01:16:16;;;;;;;;;;;22.10;57.80;;;;;;1514381;77;1546;-61
2023/10/09 01:18:16;;;;;;;;;;;22.20;57.80;;;;;;1518539;77;1559;-62
2023/10/09 01:20:27;;;;;;;;;;;22.10;57.60;;;;;;1518800;77;1187;-61
2023/10/09 01:22:23;;;;;;;;;;;22.10;57.60;;;;;;1499845;78;1910;-61
2023/10/09 01:24:26;;;;;;;;;;;22.10;57.60;;;;;;1518727;77;795;-59
2023/10/09 01:26:39;;;;;;;;;;;22.10;57.70;;;;;;1514198;77;731;-61
2023/10/09 01:28:35;;;;;;;;;;;22.20;57.70;;;;;;1477644;78;1623;-61
2023/10/09 01:30:41;;;;;;;;;;;22.10;57.70;;;;;;1517131;77;1948;-62
2023/10/09 01:32:40;;;;;;;;;;;22.20;57.60;;;;;;1514962;77;1620;-61
2023/10/09 01:34:42;;;;;;;;;;;22.10;57.60;;;;;;1484212;78;715;-62
2023/10/09 01:36:48;;;;;;;;;;;22.10;57.60;;;;;;1510119;77;820;-61
2023/10/09 01:38:50;;;;;;;;;;;22.00;57.40;;;;;;1492537;78;966;-60
2023/10/09 01:40:52;;;;;;;;;;;22.10;57.50;;;;;;1494400;78;1181;-62
2023/10/09 01:42:54;;;;;;;;;;;22.10;57.50;;;;;;1496644;78;1539;-61
2023/10/09 01:44:58;;;;;;;;;;;22.10;57.50;;;;;;1495887;78;755;-61
2023/10/09 01:46:59;;;;;;;;;;;22.10;57.60;;;;;;1498351;77;1701;-60
2023/10/09 01:49:08;;;;;;;;;;;22.10;57.60;;;;;;1518765;77;1917;-62
2023/10/09 01:51:05;;;;;;;;;;;22.10;57.50;;;;;;1514606;76;1201;-59
2023/10/09 01:53:08;;;;;;;;;;;22.10;57.50;;;;;;1516743;77;716;-59
2023/10/09 01:55:45;;;;;;;;;;;22.10;57.60;;;;;;1521003;77;705;-61
2023/10/09 01:57:23;;;;;;;;;;;22.10;57.50;;;;;;1502099;77;1498;-62
2023/10/09 01:59:25;;;;;;;;;;;22.10;57.50;;;;;;1485476;78;772;-61
2023/10/09 02:01:27;;;;;;;;;;;22.10;57.40;;;;;;1489582;78;1155;-61
2023/10/09 02:03:36;;;;;;;;;;;22.10;57.40;;;;;;1479112;78;693;-62
2023/10/09 02:05:36;;;;;;;;;;;22.10;57.30;;;;;;1487718;78;1566;-62
2023/10/09 02:07:41;;;;;;;;;;;22.10;57.40;;;;;;1483349;78;841;-61
2023/10/09 02:09:44;;;;;;;;;;;22.10;57.40;;;;;;1517766;77;1925;-62
2023/10/09 02:11:46;;;;;;;;;;;22.10;57.30;;;;;;1514895;77;1495;-62
2023/10/09 02:13:53;;;;;;;;;;;22.10;57.30;;;;;;1516733;77;743;-61
2023/10/09 02:15:53;;;;;;;;;;;22.10;57.30;;;;;;1521446;77;1762;-61
2023/10/09 02:18:00;;;;;;;;;;;22.10;57.30;;;;;;1517893;77;789;-61
2023/10/09 02:19:59;;;;;;;;;;;22.10;57.10;;;;;;1515390;77;1657;-60
2023/10/09 02:22:12;;;;;;;;;;;22.10;57.40;;;;;;1502331;77;931;-60
2023/10/09 02:24:09;;;;;;;;;;;22.10;57.40;;;;;;1504313;77;1486;-61
2023/10/09 02:26:39;;;;;;;;;;;22.10;57.50;;;;;;1505424;77;1541;-61
2023/10/09 02:28:32;;;;;;;;;;;22.10;57.60;;;;;;1504643;77;1822;-61
2023/10/09 02:30:34;;;;;;;;;;;22.10;57.60;;;;;;1506778;77;1909;-61
2023/10/09 02:32:36;;;;;;;;;;;22.10;57.60;;;;;;1507877;77;1093;-61
2023/10/09 02:34:38;;;;;;;;;;;22.10;57.60;;;;;;1514415;77;714;-63
2023/10/09 02:36:42;;;;;;;;;;;22.10;57.50;;;;;;1504618;78;761;-61
2023/10/09 02:38:46;;;;;;;;;;;22.10;57.50;;;;;;1508983;77;918;-61
2023/10/09 02:43:12;;;;;;;;;;;22.10;57.60;;;;;;1565178;75;715;-61
2023/10/09 02:45:16;;;;;;;;;;;22.10;57.50;;;;;;1567766;75;1422;-62
2023/10/09 02:47:20;;;;;;;;;;;22.10;57.50;;;;;;1566318;74;1733;-61
2023/10/09 02:49:22;;;;;;;;;;;22.10;57.40;;;;;;1564506;75;1923;-61
2023/10/09 02:53:35;;;;;;;;;;;22.10;57.30;;;;;;1562531;74;1517;-62
2023/10/09 02:55:38;;;;;;;;;;;22.10;57.30;;;;;;1564648;75;1626;-61
2023/10/09 02:57:37;;;;;;;;;;;22.10;57.40;;;;;;1568898;75;1611;-61
2023/10/09 02:59:41;;;;;;;;;;;22.10;57.30;;;;;;1569104;75;1086;-63
2023/10/09 03:01:43;;;;;;;;;;;22.10;57.30;;;;;;1567402;75;701;-62
2023/10/09 03:03:45;;;;;;;;;;;22.10;57.30;;;;;;1567765;75;777;-60
2023/10/09 03:05:49;;;;;;;;;;;22.10;57.30;;;;;;1564897;75;768;-62
2023/10/09 03:07:53;;;;;;;;;;;22.10;57.40;;;;;;1560270;75;1650;-60
2023/10/09 03:09:55;;;;;;;;;;;22.10;57.50;;;;;;1558427;75;1914;-62
2023/10/09 03:12:06;;;;;;;;;;;22.10;57.40;;;;;;1559780;75;707;-61
2023/10/09 03:14:04;;;;;;;;;;;22.10;57.50;;;;;;1557885;75;1516;-62
2023/10/09 03:16:06;;;;;;;;;;;22.10;57.50;;;;;;1561157;74;758;-61
2023/10/09 03:18:08;;;;;;;;;;;22.10;57.30;;;;;;1568029;75;965;-61
2023/10/09 03:20:12;;;;;;;;;;;22.10;57.50;;;;;;1557954;75;1220;-61
2023/10/09 03:22:14;;;;;;;;;;;22.10;57.40;;;;;;1563456;75;1525;-61
2023/10/09 03:24:16;;;;;;;;;;;22.10;57.40;;;;;;1568194;75;771;-61
2023/10/09 03:26:19;;;;;;;;;;;22.10;57.40;;;;;;1558571;75;745;-61
2023/10/09 03:28:20;;;;;;;;;;;22.10;57.30;;;;;;1555094;75;760;-62
2023/10/09 03:30:22;;;;;;;;;;;22.10;57.40;;;;;;1557821;75;1954;-59
2023/10/09 03:32:24;;;;;;;;;;;22.10;57.30;;;;;;1558373;75;687;-62
2023/10/09 03:34:27;;;;;;;;;;;22.10;57.40;;;;;;1553565;75;1093;-60
2023/10/09 03:36:30;;;;;;;;;;;22.10;57.40;;;;;;1541061;75;1544;-61
2023/10/09 03:38:34;;;;;;;;;;;22.10;57.40;;;;;;1548681;75;862;-60
2023/10/09 03:40:39;;;;;;;;;;;22.10;57.50;;;;;;1546150;76;1206;-59
2023/10/09 03:42:42;;;;;;;;;;;22.10;57.50;;;;;;1546912;75;956;-61
2023/10/09 03:44:48;;;;;;;;;;;22.10;57.50;;;;;;1547455;75;1844;-61
2023/10/09 03:46:51;;;;;;;;;;;22.10;57.50;;;;;;1552956;75;1790;-61
2023/10/09 03:49:00;;;;;;;;;;;22.10;57.40;;;;;;1551419;75;1389;-62
2023/10/09 03:51:12;;;;;;;;;;;22.10;57.50;;;;;;1536018;76;1944;-62
2023/10/09 03:53:13;;;;;;;;;;;22.10;57.50;;;;;;1548803;75;1729;-61
2023/10/09 03:55:15;;;;;;;;;;;22.10;57.40;;;;;;1538481;76;723;-61
2023/10/09 03:57:19;;;;;;;;;;;22.10;57.30;;;;;;1547240;75;750;-61
2023/10/09 03:59:21;;;;;;;;;;;22.10;57.20;;;;;;1547819;76;1515;-61
2023/10/09 04:03:27;;;;;;;;;;;22.10;57.20;;;;;;1551006;75;1516;-66
2023/10/09 04:05:29;;;;;;;;;;;22.10;57.30;;;;;;1554878;75;743;-65
2023/10/09 04:07:33;;;;;;;;;;;22.10;57.20;;;;;;1547913;76;737;-66
2023/10/09 04:09:39;;;;;;;;;;;22.10;57.30;;;;;;1540334;76;1477;-64
2023/10/09 04:11:46;;;;;;;;;;;22.10;57.40;;;;;;1545563;76;1931;-65
2023/10/09 04:13:47;;;;;;;;;;;22.10;55.70;;;;;;1546012;75;1656;-63
2023/10/09 04:15:55;;;;;;;;;;;22.10;56.40;;;;;;1550490;75;652;-62
2023/10/09 04:17:56;;;;;;;;;;;22.20;57.20;;;;;;1545719;75;1539;-62
2023/10/09 04:22:27;;;;;;;;;;;22.20;57.30;;;;;;1494829;78;1192;-63
2023/10/09 04:24:35;;;;;;;;;;;22.20;57.10;;;;;;1519343;75;817;-61
2023/10/09 04:26:34;;;;;;;;;;;22.20;57.00;;;;;;1545936;75;1437;-61
2023/10/09 04:28:36;;;;;;;;;;;22.20;57.10;;;;;;1542861;75;1528;-63
2023/10/09 04:30:42;;;;;;;;;;;22.10;57.30;;;;;;1548514;75;1943;-62
2023/10/09 04:32:44;;;;;;;;;;;22.10;57.30;;;;;;1548752;75;1638;-62
2023/10/09 04:34:48;;;;;;;;;;;22.10;57.40;;;;;;1538065;75;1755;-60
2023/10/09 04:37:36;;;;;;;;;;;22.10;57.40;;;;;;1509056;76;788;-62
2023/10/09 04:41:08;;;;;;;;;;;22.10;57.40;;;;;;1533551;76;1201;-62
2023/10/09 04:43:20;;;;;;;;;;;22.10;57.30;;;;;;1521323;76;759;-62
2023/10/09 04:47:25;;;;;;;;;;;22.10;57.30;;;;;;1530804;76;1524;-62
2023/10/09 04:49:29;;;;;;;;;;;22.10;57.20;;;;;;1519464;76;1644;-59
2023/10/09 04:51:55;;;;;;;;;;;22.10;57.20;;;;;;1509424;76;1941;-60
2023/10/09 04:53:50;;;;;;;;;;;22.10;57.10;;;;;;1503287;76;1644;-60
2023/10/09 04:55:53;;;;;;;;;;;22.10;57.10;;;;;;1514157;76;1639;-60
2023/10/09 04:58:39;;;;;;;;;;;22.10;57.00;;;;;;1512533;76;1592;-59
2023/10/09 04:59:51;;;;;;;;;;;22.10;56.90;;;;;;1486818;76;1585;-61
2023/10/09 05:01:59;;;;;;;;;;;22.10;56.90;;;;;;1512850;76;785;-59
2023/10/09 05:04:04;;;;;;;;;;;22.10;56.80;;;;;;1519689;76;704;-59
2023/10/09 05:06:55;;;;;;;;;;;22.10;56.80;;;;;;1525965;76;1605;-61
2023/10/09 05:10:32;;;;;;;;;;;22.10;55.30;;;;;;1513640;76;1934;-60
2023/10/09 05:12:34;;;;;;;;;;;22.00;54.50;;;;;;1514852;76;729;-60
2023/10/09 05:14:38;;;;;;;;;;;22.00;54.30;;;;;;1516862;76;1546;-59
2023/10/09 05:17:01;;;;;;;;;;;22.00;54.10;;;;;;1520129;76;722;-61
2023/10/09 05:19:28;;;;;;;;;;;22.00;54.20;;;;;;1520221;76;1714;-61
2023/10/09 05:23:44;;;;;;;;;;;22.00;53.10;;;;;;1518586;76;1700;-61
2023/10/09 05:28:24;;;;;;;;;;;21.90;52.90;;;;;;1519652;76;1667;-60
2023/10/09 05:30:12;;;;;;;;;;;21.90;51.50;;;;;;1508993;76;1302;-59
2023/10/09 05:34:19;;;;;;;;;;;21.90;52.30;;;;;;1524178;76;1105;-60
2023/10/09 05:38:25;;;;;;;;;;;21.90;51.50;;;;;;1538057;75;873;-60
2023/10/09 05:40:31;;;;;;;;;;;21.80;51.80;;;;;;1555117;75;1176;-60
2023/10/09 05:42:43;;;;;;;;;;;21.80;50.90;;;;;;1545973;75;1671;-60
2023/10/09 05:49:20;;;;;;;;;;;21.80;49.30;;;;;;1554625;75;1636;-61
2023/10/09 06:04:53;;;;;;;;;;;21.80;50.00;;;;;;1481699;79;1097;-58
2023/10/09 06:06:56;;;;;;;;;;;21.80;49.40;;;;;;1536427;75;1654;-60
2023/10/09 06:10:47;;;;;;;;;;;21.70;47.50;;;;;;1535383;76;1947;-60
2023/10/09 06:12:56;;;;;;;;;;;21.70;48.10;;;;;;1552767;75;1681;-59
2023/10/09 06:17:27;;;;;;;;;;;21.70;49.00;;;;;;1490094;76;935;-59
2023/10/09 06:19:28;;;;;;;;;;;21.70;48.90;;;;;;1548746;75;1694;-59
2023/10/09 06:21:40;;;;;;;;;;;21.70;49.00;;;;;;1547921;75;1085;-60
2023/10/09 06:24:02;;;;;;;;;;;21.70;49.00;;;;;;1535520;75;711;-59
2023/10/09 06:26:05;;;;;;;;;;;21.80;49.00;;;;;;1544559;75;1744;-59
2023/10/09 06:30:13;;;;;;;;;;;21.80;49.20;;;;;;1542511;75;1169;-61
2023/10/09 06:32:05;;;;;;;;;;;21.80;49.10;;;;;;1541928;75;1918;-60
2023/10/09 06:34:15;;;;;;;;;;;21.80;49.10;;;;;;1550176;75;1756;-60
2023/10/09 06:36:17;;;;;;;;;;;21.70;49.20;;;;;;1537131;75;1658;-59
2023/10/09 06:38:22;;;;;;;;;;;21.70;49.20;;;;;;1546645;75;1546;-60
2023/10/09 06:44:52;;;;;;;;;;;21.70;49.90;;;;;;1535842;75;696;-66
2023/10/09 06:46:57;;;;;;;;;;;21.80;50.40;;;;;;1551206;75;711;-58
2023/10/09 06:48:59;;;;;;;;;;;21.80;50.80;;;;;;1553329;75;1726;-61
2023/10/09 06:51:07;;;;;;;;;;;21.80;51.00;;;;;;1544062;75;1955;-59
2023/10/09 06:55:19;;;;;;;;;;;21.80;51.20;;;;;;1550701;75;817;-59
2023/10/09 06:57:43;;;;;;;;;;;21.90;51.30;;;;;;1557612;75;1609;-60
2023/10/09 06:59:23;;;;;;;;;;;21.90;51.30;;;;;;1547949;75;1432;-60
2023/10/09 07:03:32;;;;;;;;;;;21.90;51.40;;;;;;1552088;75;903;-59
2023/10/09 07:05:48;;;;;;;;;;;21.90;51.40;;;;;;1548203;75;788;-59
2023/10/09 07:07:50;;;;;;;;;;;21.90;51.50;;;;;;1546358;75;1531;-59
2023/10/09 07:10:28;;;;;;;;;;;21.90;51.50;;;;;;1545574;75;1487;-59
2023/10/09 07:13:55;;;;;;;;;;;21.90;51.60;;;;;;1540069;75;856;-61
2023/10/09 07:16:38;;;;;;;;;;;21.90;51.60;;;;;;1549140;75;665;-59
2023/10/09 07:18:18;;;;;;;;;;;21.90;51.60;;;;;;1540876;75;1415;-59
2023/10/09 07:20:36;;;;;;;;;;;21.90;51.70;;;;;;1545165;75;1671;-60
2023/10/09 07:24:37;;;;;;;;;;;22.00;51.80;;;;;;1548541;75;847;-59
2023/10/09 07:26:47;;;;;;;;;;;22.00;51.90;;;;;;1550825;76;1677;-59
2023/10/09 07:28:43;;;;;;;;;;;21.90;51.90;;;;;;1514759;76;1670;-60
2023/10/09 07:30:42;;;;;;;;;;;21.90;52.00;;;;;;1546720;75;1603;-59
2023/10/09 07:32:47;;;;;;;;;;;21.90;52.00;;;;;;1553630;75;1934;-59
2023/10/09 07:34:59;;;;;;;;;;;21.90;52.10;;;;;;1546349;75;1757;-59
2023/10/09 07:37:03;;;;;;;;;;;22.00;52.00;;;;;;1552234;75;1111;-60
2023/10/09 07:39:16;;;;;;;;;;;22.00;52.10;;;;;;1551341;75;1708;-61
2023/10/09 07:43:18;;;;;;;;;;;22.00;52.10;;;;;;1543773;75;870;-59
2023/10/09 07:47:45;;;;;;;;;;;22.00;52.10;;;;;;1548525;75;874;-60
2023/10/09 07:49:29;;;;;;;;;;;22.00;52.10;;;;;;1548374;75;1498;-60
2023/10/09 07:51:31;;;;;;;;;;;22.00;52.00;;;;;;1546209;75;1929;-59
2023/10/09 07:53:43;;;;;;;;;;;22.00;52.10;;;;;;1556726;75;791;-59
2023/10/09 07:55:39;;;;;;;;;;;22.10;52.10;;;;;;1551687;75;1634;-59
2023/10/09 07:57:42;;;;;;;;;;;22.00;52.10;;;;;;1553733;75;698;-59
2023/10/09 08:01:59;;;;;;;;;;;22.10;52.10;;;;;;1538050;76;1139;-59
2023/10/09 08:04:05;;;;;;;;;;;22.10;52.10;;;;;;1546623;75;1577;-59
2023/10/09 08:14:48;;;;;;;;;;;22.10;52.00;;;;;;1557081;75;853;-59
2023/10/09 08:17:11;;;;;;;;;;;22.10;51.90;;;;;;1563301;75;1551;-60
2023/10/09 08:18:57;;;;;;;;;;;22.00;51.80;;;;;;1548216;75;1328;-59
2023/10/09 08:23:04;;;;;;;;;;;22.00;51.80;;;;;;1538440;76;863;-59
2023/10/09 08:25:05;;;;;;;;;;;22.10;51.90;;;;;;1550936;75;1567;-59
2023/10/09 08:29:34;;;;;;;;;;;22.10;52.00;;;;;;1541260;76;1625;-59
2023/10/09 08:31:45;;;;;;;;;;;22.00;51.90;;;;;;1543782;75;1950;-59
2023/10/09 08:33:40;;;;;;;;;;;22.10;51.90;;;;;;1545091;75;1522;-59
2023/10/09 08:35:47;;;;;;;;;;;22.00;51.90;;;;;;1548662;75;721;-59
2023/10/09 08:37:49;;;;;;;;;;;22.10;52.00;;;;;;1540654;75;1118;-60
2023/10/09 08:39:51;;;;;;;;;;;22.00;51.90;;;;;;1550155;75;1187;-59
2023/10/09 08:41:53;;;;;;;;;;;22.00;51.90;;;;;;1548634;75;650;-59
2023/10/09 08:43:56;;;;;;;;;;;22.00;51.90;;;;;;1554402;75;731;-58
2023/10/09 08:46:00;;;;;;;;;;;22.10;52.00;;;;;;1553386;75;1527;-58
2023/10/09 08:48:04;;;;;;;;;;;22.00;51.90;;;;;;1557844;75;1699;-59
2023/10/09 08:50:13;;;;;;;;;;;22.10;52.00;;;;;;1546362;75;1494;-58
2023/10/09 08:52:10;;;;;;;;;;;22.00;51.90;;;;;;1538038;75;1917;-59
2023/10/09 08:54:14;;;;;;;;;;;22.00;51.90;;;;;;1551040;75;673;-60
2023/10/09 08:56:26;;;;;;;;;;;22.00;51.80;;;;;;1538329;75;717;-60
2023/10/09 08:58:24;;;;;;;;;;;22.00;51.90;;;;;;1559775;75;991;-60
2023/10/09 09:00:24;;;;;;;;;;;22.00;51.90;;;;;;1544276;75;1656;-60
2023/10/09 09:02:26;;;;;;;;;;;22.00;51.80;;;;;;1554740;75;819;-58
2023/10/09 09:04:36;;;;;;;;;;;22.00;51.90;;;;;;1551894;76;708;-59
2023/10/09 09:06:41;;;;;;;;;;;22.00;51.90;;;;;;1548637;75;905;-59
2023/10/09 09:08:44;;;;;;;;;;;22.00;51.90;;;;;;1544520;75;900;-59
2023/10/09 09:10:46;;;;;;;;;;;22.00;51.90;;;;;;1552584;75;1259;-59
2023/10/09 09:13:00;;;;;;;;;;;22.00;51.90;;;;;;1547677;75;1929;-59
2023/10/09 09:14:58;;;;;;;;;;;22.00;51.80;;;;;;1546681;76;1610;-59
2023/10/09 09:17:03;;;;;;;;;;;22.00;51.80;;;;;;1562561;74;1645;-59
2023/10/09 09:19:22;;;;;;;;;;;22.00;51.80;;;;;;1551528;75;1662;-59
2023/10/09 09:21:15;;;;;;;;;;;22.00;51.80;;;;;;1547416;75;1670;-59
2023/10/09 09:23:23;;;;;;;;;;;22.00;51.80;;;;;;1547678;75;1890;-58
2023/10/09 09:25:24;;;;;;;;;;;22.00;51.80;;;;;;1555342;75;1640;-60
2023/10/09 09:27:31;;;;;;;;;;;22.00;51.80;;;;;;1546906;75;1611;-59
2023/10/09 09:29:38;;;;;;;;;;;22.00;51.80;;;;;;1540793;75;1464;-59
2023/10/09 09:31:42;;;;;;;;;;;22.00;51.80;;;;;;1551214;75;1934;-59
2023/10/09 09:33:44;;;;;;;;;;;22.00;51.70;;;;;;1547004;75;1858;-59
2023/10/09 09:36:02;;;;;;;;;;;22.00;51.70;;;;;;1541344;75;784;-60
2023/10/09 09:38:05;;;;;;;;;;;22.00;51.70;;;;;;1558516;75;1506;-60
2023/10/09 09:40:53;;;;;;;;;;;22.00;51.60;;;;;;1563970;75;1197;-59
2023/10/09 09:42:25;;;;;;;;;;;22.00;51.60;;;;;;1531677;75;1523;-59
2023/10/09 09:44:30;;;;;;;;;;;22.00;51.60;;;;;;1555683;75;1758;-58
2023/10/09 09:46:33;;;;;;;;;;;22.00;51.60;;;;;;1566890;74;1573;-58
2023/10/09 09:48:45;;;;;;;;;;;22.00;51.50;;;;;;1561685;74;696;-59
2023/10/09 09:50:46;;;;;;;;;;;22.00;51.50;;;;;;1561304;75;1652;-59
2023/10/09 09:52:53;;;;;;;;;;;22.00;51.50;;;;;;1558872;75;1915;-59
2023/10/09 09:54:52;;;;;;;;;;;22.00;51.50;;;;;;1545171;75;1604;-59
2023/10/09 09:56:53;;;;;;;;;;;22.00;51.50;;;;;;1563367;75;1736;-59
2023/10/09 09:58:56;;;;;;;;;;;22.00;51.50;;;;;;1547299;75;699;-59
2023/10/09 10:01:00;;;;;;;;;;;21.90;51.40;;;;;;1558876;75;1161;-59
2023/10/09 10:03:05;;;;;;;;;;;22.00;51.40;;;;;;1542661;75;1991;-59
2023/10/09 10:05:07;;;;;;;;;;;22.10;51.50;;;;;;1561620;75;1994;-58
2023/10/09 10:07:09;;;;;;;;;;;22.00;51.40;;;;;;1557635;75;697;-58
2023/10/09 10:09:11;;;;;;;;;;;22.00;51.40;;;;;;1551835;75;1514;-60
2023/10/09 10:11:14;;;;;;;;;;;22.00;51.40;;;;;;1555506;75;1156;-59
2023/10/09 10:13:28;;;;;;;;;;;22.10;51.50;;;;;;1551349;75;1942;-61
2023/10/09 10:15:20;;;;;;;;;;;22.00;51.40;;;;;;1541853;75;1577;-60
2023/10/09 10:17:22;;;;;;;;;;;22.00;51.40;;;;;;1550990;74;899;-60
2023/10/09 10:19:24;;;;;;;;;;;22.00;51.30;;;;;;1552538;75;714;-59
2023/10/09 10:21:37;;;;;;;;;;;22.10;51.40;;;;;;1559173;75;1130;-58
2023/10/09 10:23:36;;;;;;;;;;;22.00;51.30;;;;;;1549960;75;1763;-60
2023/10/09 10:25:49;;;;;;;;;;;22.00;51.30;;;;;;1560325;75;731;-59
2023/10/09 10:28:00;;;;;;;;;;;22.00;51.30;;;;;;1542512;75;1712;-61
2023/10/09 10:30:13;;;;;;;;;;;22.00;51.30;;;;;;1534243;76;1621;-59
2023/10/09 10:32:18;;;;;;;;;;;22.00;51.30;;;;;;1551436;75;1911;-59
2023/10/09 10:34:23;;;;;;;;;;;22.10;51.30;;;;;;1560812;75;1647;-58
2023/10/09 10:36:26;;;;;;;;;;;22.00;51.20;;;;;;1550586;75;1697;-60
2023/10/09 10:38:36;;;;;;;;;;;22.00;51.20;;;;;;1544477;76;1498;-59
2023/10/09 10:40:38;;;;;;;;;;;22.00;51.20;;;;;;1556578;75;1180;-59
2023/10/09 10:43:09;;;;;;;;;;;22.00;51.20;;;;;;1555023;75;725;-59
2023/10/09 10:44:56;;;;;;;;;;;22.10;51.30;;;;;;1551306;75;1714;-59
2023/10/09 10:46:58;;;;;;;;;;;22.00;51.20;;;;;;1546775;75;688;-59
2023/10/09 10:49:14;;;;;;;;;;;22.00;51.10;;;;;;1554237;75;711;-58
2023/10/09 10:51:05;;;;;;;;;;;22.00;51.10;;;;;;1549622;75;1474;-60
2023/10/09 10:53:15;;;;;;;;;;;22.00;51.10;;;;;;1548734;75;1924;-59
2023/10/09 10:55:39;;;;;;;;;;;22.00;51.00;;;;;;1550228;75;706;-59
2023/10/09 10:57:37;;;;;;;;;;;22.10;51.20;;;;;;1544173;75;1381;-59
2023/10/09 10:59:41;;;;;;;;;;;22.00;51.00;;;;;;1547377;75;1692;-59
2023/10/09 11:03:56;;;;;;;;;;;22.00;51.00;;;;;;1556710;76;861;-59
2023/10/09 11:06:06;;;;;;;;;;;22.00;51.00;;;;;;1546345;75;1393;-59
2023/10/09 11:08:01;;;;;;;;;;;22.00;51.00;;;;;;1529025;76;1648;-59
2023/10/09 11:12:21;;;;;;;;;;;22.00;51.00;;;;;;1543762;75;1937;-58
2023/10/09 11:14:23;;;;;;;;;;;22.00;50.90;;;;;;1548292;75;1672;-60
2023/10/09 11:18:42;;;;;;;;;;;22.00;50.90;;;;;;1544006;76;816;-59
2023/10/09 11:20:58;;;;;;;;;;;22.00;50.90;;;;;;1550928;75;1548;-60
2023/10/09 11:25:11;;;;;;;;;;;22.00;50.80;;;;;;1540436;75;1675;-60
2023/10/09 11:27:18;;;;;;;;;;;22.00;50.80;;;;;;1551762;75;686;-59
2023/10/09 11:31:37;;;;;;;;;;;22.00;50.80;;;;;;1549759;75;1664;-59
2023/10/09 11:33:44;;;;;;;;;;;22.00;50.70;;;;;;1553054;75;1920;-59
2023/10/09 11:35:47;;;;;;;;;;;22.00;50.70;;;;;;1552690;75;1795;-59
2023/10/09 11:37:55;;;;;;;;;;;22.10;50.70;;;;;;1553464;75;1444;-58
2023/10/09 11:40:00;;;;;;;;;;;22.10;50.70;;;;;;1551017;75;1180;-58
2023/10/09 11:42:08;;;;;;;;;;;22.00;50.60;;;;;;1553795;75;1409;-60
2023/10/09 11:44:18;;;;;;;;;;;22.00;50.60;;;;;;1545572;75;1504;-59
2023/10/09 11:46:36;;;;;;;;;;;22.00;50.60;;;;;;1550485;75;1633;-61
2023/10/09 11:49:25;;;;;;;;;;;22.10;50.70;;;;;;1550644;75;1419;-59
2023/10/09 11:50:22;;;;;;;;;;;22.00;50.60;;;;;;1541139;75;1072;-59
2023/10/09 11:52:36;;;;;;;;;;;22.00;50.60;;;;;;1541910;75;1939;-59
2023/10/09 11:54:38;;;;;;;;;;;22.00;50.50;;;;;;1554935;75;715;-59
2023/10/09 11:56:39;;;;;;;;;;;22.10;50.70;;;;;;1547111;75;922;-61
2023/10/09 11:58:41;;;;;;;;;;;22.00;50.50;;;;;;1550100;75;763;-59
2023/10/09 12:00:48;;;;;;;;;;;22.00;50.50;;;;;;1550795;75;1198;-60
2023/10/09 12:02:47;;;;;;;;;;;22.10;50.50;;;;;;1549285;75;1587;-60
2023/10/09 12:04:49;;;;;;;;;;;22.00;50.40;;;;;;1560335;75;750;-60
2023/10/09 12:07:00;;;;;;;;;;;22.00;50.40;;;;;;1549415;75;753;-60
2023/10/09 12:08:58;;;;;;;;;;;22.00;50.40;;;;;;1542919;75;1710;-60
2023/10/09 12:10:57;;;;;;;;;;;22.00;50.40;;;;;;1550493;75;1504;-59
2023/10/09 12:13:00;;;;;;;;;;;22.00;50.40;;;;;;1548205;75;1945;-60
2023/10/09 12:15:05;;;;;;;;;;;22.00;50.40;;;;;;1555854;75;720;-59
2023/10/09 12:17:06;;;;;;;;;;;22.10;50.50;;;;;;1550439;75;1558;-61
2023/10/09 12:19:09;;;;;;;;;;;22.00;50.30;;;;;;1534061;76;756;-61
2023/10/09 12:21:15;;;;;;;;;;;22.00;50.20;;;;;;1551697;75;1121;-61
2023/10/09 12:23:14;;;;;;;;;;;22.00;50.30;;;;;;1546747;75;1627;-60
2023/10/09 12:25:19;;;;;;;;;;;22.10;50.40;;;;;;1547643;75;1097;-59
2023/10/09 12:27:20;;;;;;;;;;;22.00;50.30;;;;;;1539269;75;1682;-61
2023/10/09 12:29:23;;;;;;;;;;;22.00;50.30;;;;;;1529993;76;1627;-60
2023/10/09 12:31:25;;;;;;;;;;;22.00;50.20;;;;;;1533361;76;1606;-59
2023/10/09 12:33:28;;;;;;;;;;;22.10;50.30;;;;;;1539229;76;1920;-59
2023/10/09 12:35:33;;;;;;;;;;;22.00;50.40;;;;;;1537484;76;1287;-61
2023/10/09 12:37:34;;;;;;;;;;;22.00;50.30;;;;;;1534474;76;1526;-60
2023/10/09 12:39:40;;;;;;;;;;;22.00;50.30;;;;;;1531199;76;1543;-59
2023/10/09 12:41:41;;;;;;;;;;;22.00;50.40;;;;;;1543597;76;1490;-60
2023/10/09 12:43:43;;;;;;;;;;;22.00;50.40;;;;;;1532479;76;1477;-60
2023/10/09 12:45:45;;;;;;;;;;;22.00;50.40;;;;;;1540826;76;1063;-61
2023/10/09 12:47:47;;;;;;;;;;;22.00;50.40;;;;;;1539247;76;1455;-60
2023/10/09 12:49:49;;;;;;;;;;;22.00;50.50;;;;;;1539455;76;1505;-59
2023/10/09 12:51:52;;;;;;;;;;;22.00;50.50;;;;;;1534036;76;1396;-60
2023/10/09 12:53:56;;;;;;;;;;;22.00;50.50;;;;;;1542852;76;1920;-60
2023/10/09 12:55:57;;;;;;;;;;;22.00;50.50;;;;;;1537422;76;1498;-60
2023/10/09 12:58:08;;;;;;;;;;;22.00;50.50;;;;;;1537149;76;1498;-60
2023/10/09 13:00:10;;;;;;;;;;;22.00;50.50;;;;;;1532742;76;1311;-60
2023/10/09 13:02:28;;;;;;;;;;;22.00;50.60;;;;;;1533535;76;1270;-60
2023/10/09 13:04:18;;;;;;;;;;;22.00;50.50;;;;;;1541986;76;1531;-60
2023/10/09 13:06:23;;;;;;;;;;;22.00;50.60;;;;;;1536198;76;1312;-60
2023/10/09 13:08:24;;;;;;;;;;;22.00;50.60;;;;;;1528645;76;1906;-60
2023/10/09 13:10:31;;;;;;;;;;;22.00;50.60;;;;;;1536682;76;1156;-60
2023/10/09 13:12:29;;;;;;;;;;;22.00;50.60;;;;;;1538162;76;1615;-59
2023/10/09 13:14:35;;;;;;;;;;;22.00;50.60;;;;;;1536930;76;1929;-61
2023/10/09 13:16:37;;;;;;;;;;;22.00;50.70;;;;;;1531684;76;742;-62
2023/10/09 13:18:49;;;;;;;;;;;22.00;50.60;;;;;;1538296;76;768;-60
2023/10/09 13:20:45;;;;;;;;;;;22.00;50.60;;;;;;1533571;76;1585;-61
2023/10/09 13:22:48;;;;;;;;;;;22.00;50.70;;;;;;1533402;76;719;-60
2023/10/09 13:24:52;;;;;;;;;;;22.00;50.70;;;;;;1544194;76;773;-60
2023/10/09 13:26:58;;;;;;;;;;;22.00;50.70;;;;;;1538316;76;1542;-61
2023/10/09 13:28:57;;;;;;;;;;;22.00;50.70;;;;;;1544673;76;981;-60
2023/10/09 13:31:04;;;;;;;;;;;22.00;50.70;;;;;;1495822;77;1200;-60
2023/10/09 13:33:05;;;;;;;;;;;22.00;50.60;;;;;;1504374;77;1925;-60
2023/10/09 13:35:07;;;;;;;;;;;22.00;50.70;;;;;;1482777;79;1492;-58
2023/10/09 13:37:13;;;;;;;;;;;22.00;50.70;;;;;;1490188;79;720;-61
2023/10/09 13:39:30;;;;;;;;;;;22.00;50.70;;;;;;1479332;79;1817;-60
2023/10/09 13:41:31;;;;;;;;;;;22.00;50.70;;;;;;1475890;79;1795;-60
2023/10/09 13:43:34;;;;;;;;;;;22.00;50.70;;;;;;1465425;79;727;-60
2023/10/09 13:45:38;;;;;;;;;;;22.00;50.70;;;;;;1480534;79;792;-60
2023/10/09 13:47:40;;;;;;;;;;;22.00;50.70;;;;;;1478313;79;1044;-61
2023/10/09 13:49:44;;;;;;;;;;;22.00;50.70;;;;;;1482434;78;1151;-60
2023/10/09 13:51:45;;;;;;;;;;;22.00;50.70;;;;;;1546037;76;2016;-61
2023/10/09 13:53:47;;;;;;;;;;;22.00;50.70;;;;;;1549203;76;1915;-61